Wayne, NE

8:34 PM CDT on September 27, 2016 (GMT -0500)
Courthouse Hill | | Change Station

Elev 1512 ft 42.23 °N, 97.02 °W | Updated 3 seconds ago

Clear
Clear
66.4 °F
Feels Like 66.4 °F
N
1.1
Wind Variable Wind from SW
Gusts 2.5 mph

Today
High -- | Low -- °F
--% Chance of Precip.
Yesterday
High -- | Low -- °F
Precip. -- in
Pressure 29.88 in
Visibility 10.0 miles
Clouds Clear
Dew Point 50 °F
Humidity 55%
Rainfall 0.00 in
Snow Depth Not available.
7:21 AM 7:15 PM
Waning Crescent, 8% visible
METAR KLCG 280115Z AUTO 00000KT 10SM CLR 15/09 A2988 RMK AO2 T01450086
Pressure 29.88 in
Visibility 10.0 miles
Clouds Clear
Dew Point 50 °F
Humidity 55%
Rainfall 0.00 in
Snow Depth Not available.
7:21 AM 7:15 PM
Waning Crescent, 8% visible
METAR KLCG 280115Z AUTO 00000KT 10SM CLR 15/09 A2988 RMK AO2 T01450086

10-Day Weather Forecast

Almanac

Astronomy

Sep. 27, 2016 Rise Set
Actual Time
Civil Twilight
Nautical Twilight
Astronomical Twilight
Moon
Length of Visible Light
Length of Day
Tomorrow will be .
, % of the Moon is Illuminated

Today's Extremes

State Highs State Lows

Community

WunderPhotos

Upload Photos

1,942,179 photos uploaded!

WunderBlog® & News

Nearby

Air Quality

  Air Quality AQ Index Pollutant
Not available.

Snow Depth

Station Depth Elevation

Earthquake Activity

City Distance Mag. Time & Date
Minimum magnitude displayed is 2.5.

Coastal Water Temperatures

Place Temperature

Stations

Nearby Weather Stations

Station Location Temp. Windchill Dew Point Humidity Wind Precip. Elev Updated Type
                   

Watches & Warnings

There are currently no watches in effect.